ADDS - METARS form results

Aviation Digital Data Service (ADDS)

Output produced by METARs form (1739 UTC 09 July 2020)
found at http://aviationweather.gov/metar/data/
 
METAR text: KJOT 091735Z AUTO 17006KT 10SM CLR 32/23 A2988 RMK AO2 T03190225
Conditions at: KJOT (JOLIET , IL, US) observed 1735 UTC 09 July 2020
Temperature: 31.9°C (89°F)
Dewpoint: 22.5°C (72°F) [RH = 58%]
Pressure (altimeter): 29.88 inches Hg (1011.9 mb)
Winds: from the S (170 degrees) at 7 MPH (6 knots; 3.1 m/s)
Visibility: 10 or more miles (16+ km)
Ceiling: at least 12,000 feet AGL
Clouds: sky clear below 12,000 feet AGL
Weather: automated observation with no human augmentation;
there may or may not be significant weather present at this time

METAR text: KJOT 091715Z AUTO 15006KT 10SM CLR 32/22 A2988 RMK AO2 T03150220
Conditions at: KJOT (JOLIET , IL, US) observed 1715 UTC 09 July 2020
Temperature: 31.5°C (89°F)
Dewpoint: 22.0°C (72°F) [RH = 57%]
Pressure (altimeter): 29.88 inches Hg (1011.9 mb)
Winds: from the SSE (150 degrees) at 7 MPH (6 knots; 3.1 m/s)
Visibility: 10 or more miles (16+ km)
Ceiling: at least 12,000 feet AGL
Clouds: sky clear below 12,000 feet AGL
Weather: automated observation with no human augmentation;
there may or may not be significant weather present at this time

METAR text: KJOT 091655Z AUTO 17005KT 10SM CLR 31/22 A2989 RMK AO2 T03120218
Conditions at: KJOT (JOLIET , IL, US) observed 1655 UTC 09 July 2020
Temperature: 31.2°C (88°F)
Dewpoint: 21.8°C (71°F) [RH = 57%]
Pressure (altimeter): 29.89 inches Hg (1012.3 mb)
Winds: from the S (170 degrees) at 6 MPH (5 knots; 2.6 m/s)
Visibility: 10 or more miles (16+ km)
Ceiling: at least 12,000 feet AGL
Clouds: sky clear below 12,000 feet AGL
Weather: automated observation with no human augmentation;
there may or may not be significant weather present at this time